createdAt,value
2022-07-31T00:00:15.188Z,100694.94
2022-07-31T00:02:42.192Z,100704.59
2022-07-31T00:05:09.821Z,100697.09
2022-07-31T00:07:37.147Z,100700.28
2022-07-31T00:10:05.941Z,100694.63
2022-07-31T00:12:34.807Z,100694.72
2022-07-31T00:15:07.505Z,100693.84
2022-07-31T00:17:34.733Z,100693.84
2022-07-31T00:20:02.121Z,100696.72
2022-07-31T00:22:29.230Z,100696.41
2022-07-31T00:24:56.629Z,100694.44
2022-07-31T00:27:24.167Z,100690.00
2022-07-31T00:29:51.414Z,100687.38
2022-07-31T00:32:18.530Z,100689.09
2022-07-31T00:34:45.516Z,100685.53
2022-07-31T00:37:12.452Z,100696.00
2022-07-31T00:39:39.429Z,100693.66
2022-07-31T00:42:16.081Z,100691.00
2022-07-31T00:44:43.030Z,100693.78
2022-07-31T00:47:14.974Z,100691.91
2022-07-31T00:49:42.296Z,100686.47
2022-07-31T00:52:09.416Z,100681.28
2022-07-31T00:54:36.394Z,100682.75
2022-07-31T00:57:04.411Z,100675.19
2022-07-31T00:59:31.985Z,100681.69
2022-07-31T01:01:59.723Z,100681.91
2022-07-31T01:04:27.343Z,100682.28
2022-07-31T01:06:55.742Z,100676.09
2022-07-31T01:09:22.963Z,100680.75
2022-07-31T01:12:16.369Z,100675.81
2022-07-31T01:14:56.946Z,100682.88
2022-07-31T01:17:27.929Z,100686.13
2022-07-31T01:19:55.078Z,100689.50
2022-07-31T01:22:57.311Z,100685.31
2022-07-31T01:25:47.576Z,100681.28
2022-07-31T01:28:53.741Z,100685.50
2022-07-31T01:31:57.575Z,100678.78
2022-07-31T01:34:46.645Z,100681.47
2022-07-31T01:37:42.458Z,100682.34
2022-07-31T01:40:16.937Z,100682.16
2022-07-31T01:42:51.846Z,100678.41
2022-07-31T01:45:20.953Z,100679.97
2022-07-31T01:47:49.029Z,100677.44
2022-07-31T01:50:42.524Z,100686.72
2022-07-31T01:53:05.015Z,100674.78
2022-07-31T01:56:02.248Z,100680.78
2022-07-31T01:58:23.906Z,100679.16
2022-07-31T02:00:58.320Z,100674.66
2022-07-31T02:03:43.636Z,100673.88
2022-07-31T02:06:18.955Z,100674.66
2022-07-31T02:08:49.157Z,100665.34
2022-07-31T02:11:19.955Z,100665.28
2022-07-31T02:13:48.925Z,100670.03
2022-07-31T02:16:19.517Z,100665.44
2022-07-31T02:18:52.603Z,100666.72
2022-07-31T02:21:26.033Z,100673.63
2022-07-31T02:23:53.414Z,100674.22
2022-07-31T02:26:21.807Z,100676.38
2022-07-31T02:28:51.015Z,100674.59
2022-07-31T02:31:18.522Z,100676.44
2022-07-31T02:33:49.301Z,100679.78
2022-07-31T02:36:19.978Z,100671.41
2022-07-31T02:38:48.809Z,100674.19
2022-07-31T02:41:18.104Z,100675.47
2022-07-31T02:43:46.843Z,100671.16
2022-07-31T02:46:25.041Z,100665.25
2022-07-31T02:48:52.833Z,100663.53
2022-07-31T02:51:23.889Z,100665.28
2022-07-31T02:53:51.554Z,100663.56
2022-07-31T02:56:19.558Z,100652.34
2022-07-31T02:58:47.595Z,100655.97
2022-07-31T03:01:21.512Z,100658.13
2022-07-31T03:03:50.126Z,100649.25
2022-07-31T03:06:18.078Z,100658.22
2022-07-31T03:08:45.449Z,100653.75
2022-07-31T03:11:16.482Z,100663.31
2022-07-31T03:13:45.190Z,100663.72
2022-07-31T03:16:12.890Z,100657.53
2022-07-31T03:18:41.616Z,100657.94
2022-07-31T03:21:11.048Z,100660.88
2022-07-31T03:23:39.066Z,100660.97
2022-07-31T03:26:11.169Z,100653.41
2022-07-31T03:28:39.117Z,100655.53
2022-07-31T03:31:10.412Z,100648.50
2022-07-31T03:33:37.419Z,100650.91
2022-07-31T03:36:05.466Z,100656.38
2022-07-31T03:38:39.303Z,100659.25
2022-07-31T03:41:18.605Z,100651.50
2022-07-31T03:43:48.585Z,100654.78
2022-07-31T03:46:22.504Z,100657.19
2022-07-31T03:48:52.490Z,100661.56
2022-07-31T03:51:20.167Z,100659.75
2022-07-31T03:53:48.971Z,100666.47
2022-07-31T03:56:56.737Z,100668.81
2022-07-31T03:59:25.847Z,100665.69
2022-07-31T04:01:58.349Z,100663.91
2022-07-31T04:04:44.554Z,100668.31
2022-07-31T04:07:11.680Z,100666.31
2022-07-31T04:09:38.812Z,100671.81
2022-07-31T04:12:07.347Z,100670.97
2022-07-31T04:14:34.518Z,100665.63
2022-07-31T04:17:01.565Z,100668.81
2022-07-31T04:19:31.665Z,100665.09
2022-07-31T04:21:59.714Z,100670.44
2022-07-31T04:24:27.293Z,100670.25
2022-07-31T04:27:10.875Z,100676.22
2022-07-31T04:29:46.872Z,100675.44
2022-07-31T04:32:14.970Z,100675.44
2022-07-31T04:34:52.885Z,100671.47
2022-07-31T04:37:20.264Z,100678.97
2022-07-31T04:39:47.605Z,100671.91
2022-07-31T04:42:15.436Z,100671.72
2022-07-31T04:44:42.475Z,100678.88
2022-07-31T04:47:09.496Z,100683.59
2022-07-31T04:49:42.041Z,100679.38
2022-07-31T04:52:11.289Z,100685.41
2022-07-31T04:54:39.471Z,100687.13
2022-07-31T04:57:08.780Z,100691.53
2022-07-31T04:59:57.937Z,100695.22
2022-07-31T05:02:22.808Z,100691.59
2022-07-31T05:04:56.332Z,100694.25
2022-07-31T05:07:28.603Z,100689.72
2022-07-31T05:09:58.543Z,100689.63
2022-07-31T05:12:26.070Z,100686.53
2022-07-31T05:14:53.510Z,100687.22
2022-07-31T05:17:20.837Z,100690.31
2022-07-31T05:20:06.745Z,100686.00
2022-07-31T05:22:56.230Z,100691.16
2022-07-31T05:25:43.655Z,100688.50
2022-07-31T05:28:10.656Z,100686.25
2022-07-31T05:30:39.328Z,100680.13
2022-07-31T05:33:06.803Z,100686.34
2022-07-31T05:35:33.834Z,100689.41
2022-07-31T05:38:00.998Z,100688.72
2022-07-31T05:40:46.302Z,100688.09
2022-07-31T05:43:38.470Z,100690.91
2022-07-31T05:46:29.048Z,100681.50
2022-07-31T05:48:56.073Z,100678.63
2022-07-31T05:51:23.184Z,100681.03
2022-07-31T05:53:50.365Z,100688.84
2022-07-31T05:56:35.681Z,100680.94
2022-07-31T05:59:02.946Z,100684.22
2022-07-31T06:01:30.193Z,100687.84
2022-07-31T06:03:57.314Z,100685.94
2022-07-31T06:06:30.457Z,100687.47
2022-07-31T06:09:03.748Z,100685.06
2022-07-31T06:11:35.085Z,100686.16
2022-07-31T06:14:02.123Z,100687.38
2022-07-31T06:16:39.071Z,100690.91
2022-07-31T06:19:06.059Z,100685.38
2022-07-31T06:21:33.061Z,100695.53
2022-07-31T06:24:00.192Z,100701.34
2022-07-31T06:26:38.878Z,100694.38
2022-07-31T06:29:07.169Z,100696.84
2022-07-31T06:31:34.410Z,100685.13
2022-07-31T06:34:01.645Z,100691.97
2022-07-31T06:36:37.358Z,100691.81
2022-07-31T06:39:07.630Z,100692.84
2022-07-31T06:41:49.707Z,100696.56
2022-07-31T06:44:46.383Z,100700.19
2022-07-31T06:47:32.456Z,100692.84
2022-07-31T06:50:15.902Z,100701.00
2022-07-31T06:52:53.179Z,100688.69
2022-07-31T06:55:22.689Z,100690.84
2022-07-31T06:57:51.487Z,100691.66
2022-07-31T07:00:20.447Z,100696.66
2022-07-31T07:02:50.610Z,100695.78
2022-07-31T07:05:17.949Z,100703.00
2022-07-31T07:07:48.008Z,100702.66
2022-07-31T07:10:15.201Z,100697.50
2022-07-31T07:13:11.256Z,100697.53
2022-07-31T07:15:38.271Z,100698.78
2022-07-31T07:18:06.928Z,100695.72
2022-07-31T07:20:39.048Z,100696.84
2022-07-31T07:23:06.378Z,100698.84
2022-07-31T07:25:42.167Z,100691.19
2022-07-31T07:28:15.179Z,100683.25
2022-07-31T07:30:56.593Z,100680.19
2022-07-31T07:33:41.082Z,100678.94
2022-07-31T07:36:23.656Z,100685.78
2022-07-31T07:38:56.225Z,100693.44
2022-07-31T07:41:25.169Z,100688.50
2022-07-31T07:43:53.215Z,100694.91
2022-07-31T07:46:23.846Z,100686.41
2022-07-31T07:48:57.769Z,100686.13
2022-07-31T07:51:59.703Z,100685.16
2022-07-31T07:54:40.064Z,100677.81
2022-07-31T07:57:15.103Z,100678.56
2022-07-31T08:00:01.626Z,100671.13
2022-07-31T08:03:46.665Z,100663.06
2022-07-31T08:05:39.980Z,100672.53
2022-07-31T08:08:07.125Z,100664.44
2022-07-31T08:10:49.805Z,100651.75
2022-07-31T08:13:23.693Z,100656.25
2022-07-31T08:16:09.100Z,100655.84
2022-07-31T08:18:44.963Z,100651.97
2022-07-31T08:21:12.232Z,100651.00
2022-07-31T08:23:39.215Z,100646.19
2022-07-31T08:26:10.417Z,100649.06
2022-07-31T08:28:38.661Z,100656.28
2022-07-31T08:31:05.824Z,100656.88
2022-07-31T08:33:39.287Z,100650.44
2022-07-31T08:36:09.125Z,100651.88
2022-07-31T08:38:37.046Z,100655.09
2022-07-31T08:41:22.747Z,100653.75
2022-07-31T08:43:59.932Z,100640.66
2022-07-31T08:46:40.986Z,100652.41
2022-07-31T08:49:09.924Z,100647.75
2022-07-31T08:51:51.623Z,100647.69
2022-07-31T08:54:24.122Z,100645.34
2022-07-31T08:56:52.909Z,100646.06
2022-07-31T08:59:21.912Z,100640.28
2022-07-31T09:01:49.376Z,100634.75
2022-07-31T09:04:17.147Z,100642.19
2022-07-31T09:06:45.192Z,100632.09
2022-07-31T09:09:12.349Z,100635.66
2022-07-31T09:11:55.805Z,100624.63
2022-07-31T09:14:49.454Z,100618.56
2022-07-31T09:17:17.216Z,100628.38
2022-07-31T09:19:51.982Z,100621.81
2022-07-31T09:22:31.207Z,100623.44
2022-07-31T09:25:12.144Z,100607.78
2022-07-31T09:27:43.250Z,100607.81
2022-07-31T09:30:12.270Z,100602.59
2022-07-31T09:33:18.708Z,100606.84
2022-07-31T09:36:00.960Z,100601.28
2022-07-31T09:38:44.053Z,100603.84
2022-07-31T09:41:58.067Z,100606.25
2022-07-31T09:44:15.961Z,100595.13
2022-07-31T09:46:49.702Z,100598.97
2022-07-31T09:49:17.169Z,100599.53
2022-07-31T09:51:48.296Z,100594.53
2022-07-31T09:54:25.790Z,100598.09
2022-07-31T09:57:13.678Z,100586.56
2022-07-31T09:59:44.255Z,100592.53
2022-07-31T10:02:15.517Z,100598.47
2022-07-31T10:04:48.673Z,100594.44
2022-07-31T10:07:24.434Z,100585.53
2022-07-31T10:10:07.705Z,100582.03
2022-07-31T10:12:50.226Z,100565.41
2022-07-31T10:15:20.062Z,100569.00
2022-07-31T10:17:59.364Z,100568.22
2022-07-31T10:20:54.727Z,100574.38
2022-07-31T10:23:45.590Z,100571.38
2022-07-31T10:26:13.985Z,100568.25
2022-07-31T10:28:42.681Z,100565.59
2022-07-31T10:31:12.481Z,100574.38
2022-07-31T10:33:44.053Z,100556.97
2022-07-31T10:36:48.524Z,100557.28
2022-07-31T10:40:24.574Z,100543.16
2022-07-31T10:43:24.586Z,100546.28
2022-07-31T10:46:25.809Z,100536.50
2022-07-31T10:49:08.837Z,100524.63
2022-07-31T10:51:55.005Z,100518.59
2022-07-31T10:54:46.903Z,100526.53
2022-07-31T10:57:34.985Z,100517.44
2022-07-31T11:00:33.667Z,100511.59
2022-07-31T11:03:46.042Z,100515.97
2022-07-31T11:06:41.521Z,100508.00
2022-07-31T11:09:30.226Z,100503.25
2022-07-31T11:12:27.927Z,100490.59
2022-07-31T11:15:24.171Z,100498.34
2022-07-31T11:18:25.244Z,100498.47
2022-07-31T11:21:36.076Z,100490.16
2022-07-31T11:24:03.836Z,100488.28
2022-07-31T11:26:41.295Z,100492.00
2022-07-31T11:29:58.943Z,100476.06
2022-07-31T11:32:06.435Z,100479.47
2022-07-31T11:34:57.098Z,100481.69
2022-07-31T11:37:46.187Z,100477.28
2022-07-31T11:40:19.667Z,100477.28
2022-07-31T11:43:00.044Z,100466.88
2022-07-31T11:45:33.380Z,100465.88
2022-07-31T11:48:12.225Z,100476.41
2022-07-31T11:50:42.693Z,100465.19
2022-07-31T11:53:09.830Z,100465.00
2022-07-31T11:55:54.509Z,100466.84
2022-07-31T11:58:23.581Z,100447.03
2022-07-31T12:01:00.470Z,100459.56
2022-07-31T12:03:36.705Z,100453.44
2022-07-31T12:06:06.168Z,100423.84
2022-07-31T12:08:35.330Z,100439.03
2022-07-31T12:11:05.171Z,100432.44
2022-07-31T12:13:32.492Z,100438.91
2022-07-31T12:16:05.130Z,100430.03
2022-07-31T12:18:59.045Z,100438.06
2022-07-31T12:21:39.747Z,100414.06
2022-07-31T12:24:14.490Z,100427.97
2022-07-31T12:26:52.068Z,100408.41
2022-07-31T12:29:20.199Z,100410.28
2022-07-31T12:31:48.283Z,100405.84
2022-07-31T12:34:42.873Z,100408.00
2022-07-31T12:37:15.461Z,100410.91
2022-07-31T12:40:00.989Z,100403.66
2022-07-31T12:42:40.730Z,100391.91
2022-07-31T12:45:19.281Z,100405.31
2022-07-31T12:47:51.423Z,100394.44
2022-07-31T12:50:25.613Z,100401.91
2022-07-31T12:52:53.589Z,100378.53
2022-07-31T12:55:20.972Z,100391.63
2022-07-31T12:57:51.035Z,100378.09
2022-07-31T13:00:23.116Z,100381.63
2022-07-31T13:02:52.275Z,100373.72
2022-07-31T13:05:19.877Z,100379.63
2022-07-31T13:07:47.312Z,100376.03
2022-07-31T13:10:22.206Z,100357.78
2022-07-31T13:12:52.877Z,100349.72
2022-07-31T13:15:29.461Z,100343.00
2022-07-31T13:17:59.806Z,100341.38
2022-07-31T13:20:27.005Z,100350.47
2022-07-31T13:22:54.211Z,100344.75
2022-07-31T13:25:21.279Z,100348.56
2022-07-31T13:27:48.341Z,100335.28
2022-07-31T13:30:16.373Z,100342.09
2022-07-31T13:32:43.385Z,100331.03
2022-07-31T13:35:27.192Z,100333.06
2022-07-31T13:37:56.344Z,100327.31
2022-07-31T13:40:42.239Z,100306.84
2022-07-31T13:43:09.463Z,100314.97
2022-07-31T13:45:37.037Z,100304.44
2022-07-31T13:48:09.010Z,100302.31
2022-07-31T13:50:39.565Z,100302.09
2022-07-31T13:53:06.721Z,100302.34
2022-07-31T13:55:33.888Z,100298.97
2022-07-31T13:58:01.678Z,100304.09
2022-07-31T14:00:30.812Z,100296.41
2022-07-31T14:02:58.356Z,100299.94
2022-07-31T14:05:27.519Z,100295.88
2022-07-31T14:07:56.095Z,100290.63
2022-07-31T14:10:23.952Z,100284.09
2022-07-31T14:12:51.317Z,100283.66
2022-07-31T14:15:18.720Z,100281.53
2022-07-31T14:17:46.385Z,100276.63
2022-07-31T14:20:13.952Z,100279.97
2022-07-31T14:22:42.238Z,100280.50
2022-07-31T14:25:12.115Z,100273.25
2022-07-31T14:27:39.776Z,100273.72
2022-07-31T14:30:09.042Z,100283.19
2022-07-31T14:32:36.293Z,100269.56
2022-07-31T14:35:08.128Z,100264.56
2022-07-31T14:37:36.660Z,100279.41
2022-07-31T14:40:08.170Z,100267.63
2022-07-31T14:42:35.587Z,100265.34
2022-07-31T14:45:03.214Z,100258.22
2022-07-31T14:47:34.305Z,100258.41
2022-07-31T14:50:06.941Z,100263.44
2022-07-31T14:52:37.271Z,100265.78
2022-07-31T14:55:07.829Z,100250.09
2022-07-31T14:57:34.909Z,100265.50
2022-07-31T15:00:02.146Z,100244.09
2022-07-31T15:02:29.244Z,100250.84
2022-07-31T15:04:56.897Z,100254.22
2022-07-31T15:07:45.893Z,100243.28
2022-07-31T15:10:12.220Z,100248.13
2022-07-31T15:12:40.212Z,100249.38
2022-07-31T15:15:08.539Z,100260.22
2022-07-31T15:17:35.727Z,100240.63
2022-07-31T15:20:02.883Z,100231.69
2022-07-31T15:22:29.933Z,100236.50
2022-07-31T15:24:57.109Z,100243.75
2022-07-31T15:27:25.024Z,100242.94
2022-07-31T15:30:00.692Z,100237.03
2022-07-31T15:32:39.247Z,100231.59
2022-07-31T15:35:09.460Z,100236.63
2022-07-31T15:37:38.899Z,100243.19
2022-07-31T15:40:09.769Z,100242.34
2022-07-31T15:42:40.506Z,100239.59
2022-07-31T15:45:13.593Z,100233.16
2022-07-31T15:47:42.423Z,100224.41
2022-07-31T15:50:12.191Z,100220.84
2022-07-31T15:52:39.974Z,100216.22
2022-07-31T15:55:08.784Z,100217.34
2022-07-31T15:57:35.963Z,100205.69
2022-07-31T16:00:04.524Z,100206.47
2022-07-31T16:02:38.236Z,100216.25
2022-07-31T16:05:12.118Z,100210.31
2022-07-31T16:08:32.747Z,100213.56
2022-07-31T16:10:38.559Z,100210.72
2022-07-31T16:13:05.787Z,100218.97
2022-07-31T16:15:34.644Z,100206.16
2022-07-31T16:18:02.272Z,100203.22
2022-07-31T16:20:29.338Z,100207.69
2022-07-31T16:23:00.993Z,100198.38
2022-07-31T16:25:34.806Z,100201.59
2022-07-31T16:28:04.270Z,100197.72
2022-07-31T16:30:32.001Z,100192.50
2022-07-31T16:32:59.275Z,100204.56
2022-07-31T16:35:26.546Z,100190.03
2022-07-31T16:37:54.742Z,100182.06
2022-07-31T16:40:28.555Z,100179.13
2022-07-31T16:43:48.121Z,100183.22
2022-07-31T16:45:52.233Z,100191.75
2022-07-31T16:48:19.628Z,100188.16
2022-07-31T16:50:48.401Z,100184.41
2022-07-31T16:54:12.706Z,100193.19
2022-07-31T16:56:16.105Z,100194.53
2022-07-31T16:58:44.062Z,100185.34
2022-07-31T17:01:57.905Z,100187.38
2022-07-31T17:04:03.584Z,100197.81
2022-07-31T17:06:35.959Z,100182.19
2022-07-31T17:09:16.963Z,100185.28
2022-07-31T17:11:50.975Z,100186.69
2022-07-31T17:14:27.188Z,100188.53
2022-07-31T17:16:55.690Z,100192.78
2022-07-31T17:19:41.235Z,100182.00
2022-07-31T17:22:17.480Z,100197.13
2022-07-31T17:24:50.437Z,100179.50
2022-07-31T17:27:19.206Z,100191.25
2022-07-31T17:29:46.278Z,100188.50
2022-07-31T17:32:13.673Z,100197.19
2022-07-31T17:34:44.890Z,100190.31
2022-07-31T17:37:12.843Z,100193.50
2022-07-31T17:39:39.913Z,100206.25
2022-07-31T17:42:09.300Z,100200.28
2022-07-31T17:44:37.891Z,100199.66
2022-07-31T17:47:08.269Z,100193.44
2022-07-31T17:49:35.808Z,100199.72
2022-07-31T17:52:03.246Z,100209.50
2022-07-31T17:54:32.535Z,100205.47
2022-07-31T17:56:59.705Z,100213.38
2022-07-31T17:59:28.073Z,100219.34
2022-07-31T18:02:00.315Z,100221.00
2022-07-31T18:04:33.404Z,100220.84
2022-07-31T18:07:04.161Z,100218.13
2022-07-31T18:09:32.007Z,100219.97
2022-07-31T18:11:59.134Z,100213.72
2022-07-31T18:14:26.711Z,100223.44
2022-07-31T18:16:54.261Z,100214.72
2022-07-31T18:19:22.492Z,100225.50
2022-07-31T18:21:51.335Z,100230.69
2022-07-31T18:24:20.054Z,100236.97
2022-07-31T18:26:47.625Z,100239.44
2022-07-31T18:29:16.897Z,100233.97
2022-07-31T18:31:45.368Z,100239.81
2022-07-31T18:34:13.193Z,100239.56
2022-07-31T18:36:40.823Z,100246.72
2022-07-31T18:39:07.973Z,100243.00
2022-07-31T18:41:35.097Z,100244.22
2022-07-31T18:44:02.205Z,100248.28
2022-07-31T18:46:29.316Z,100254.28
2022-07-31T18:48:56.926Z,100256.13
2022-07-31T18:51:29.143Z,100259.81
2022-07-31T18:53:56.408Z,100251.38
2022-07-31T18:56:25.233Z,100261.59
2022-07-31T18:58:53.900Z,100256.75
2022-07-31T19:01:21.484Z,100265.69
2022-07-31T19:03:49.231Z,100265.19
2022-07-31T19:06:17.423Z,100260.63
2022-07-31T19:08:44.962Z,100270.13
2022-07-31T19:11:12.443Z,100261.19
2022-07-31T19:13:39.659Z,100262.38
2022-07-31T19:16:06.881Z,100259.47
2022-07-31T19:18:34.431Z,100275.59
2022-07-31T19:21:21.355Z,100270.84
2022-07-31T19:23:49.676Z,100281.88
2022-07-31T19:26:16.956Z,100281.00
2022-07-31T19:28:44.274Z,100287.63
2022-07-31T19:31:13.393Z,100286.38
2022-07-31T19:33:40.914Z,100291.09
2022-07-31T19:36:08.382Z,100288.72
2022-07-31T19:38:40.861Z,100293.06
2022-07-31T19:41:07.923Z,100293.16
2022-07-31T19:43:35.720Z,100299.28
2022-07-31T19:46:11.825Z,100298.91
2022-07-31T19:48:44.866Z,100305.84
2022-07-31T19:51:15.403Z,100308.63
2022-07-31T19:53:43.494Z,100315.00
2022-07-31T19:56:15.802Z,100316.72
2022-07-31T19:58:48.009Z,100317.28
2022-07-31T20:01:15.527Z,100323.47
2022-07-31T20:03:43.090Z,100316.19
2022-07-31T20:06:10.190Z,100318.84
2022-07-31T20:08:37.351Z,100321.53
2022-07-31T20:11:05.382Z,100325.13
2022-07-31T20:13:34.251Z,100319.47
2022-07-31T20:16:01.839Z,100330.13
2022-07-31T20:18:30.576Z,100332.22
2022-07-31T20:21:07.283Z,100331.22
2022-07-31T20:23:38.175Z,100332.09
2022-07-31T20:26:10.687Z,100325.75
2022-07-31T20:28:40.393Z,100329.94
2022-07-31T20:31:17.242Z,100332.47
2022-07-31T20:33:57.612Z,100330.31
2022-07-31T20:36:26.853Z,100326.84
2022-07-31T20:38:54.450Z,100333.56
2022-07-31T20:41:21.537Z,100331.16
2022-07-31T20:43:48.662Z,100340.44
2022-07-31T20:46:16.746Z,100339.56
2022-07-31T20:48:45.268Z,100338.03
2022-07-31T20:51:20.563Z,100347.84
2022-07-31T20:53:49.422Z,100347.28
2022-07-31T20:56:16.872Z,100351.44
2022-07-31T20:58:48.293Z,100347.59
2022-07-31T21:01:20.165Z,100347.34
2022-07-31T21:03:48.488Z,100347.03
2022-07-31T21:06:16.589Z,100349.75
2022-07-31T21:08:44.337Z,100352.78
2022-07-31T21:11:11.867Z,100352.47
2022-07-31T21:13:39.575Z,100352.94
2022-07-31T21:16:06.793Z,100348.97
2022-07-31T21:18:37.075Z,100349.69
2022-07-31T21:21:06.445Z,100352.00
2022-07-31T21:23:33.976Z,100357.66
2022-07-31T21:26:02.706Z,100357.38
2022-07-31T21:28:30.345Z,100366.06
2022-07-31T21:30:57.869Z,100363.06
2022-07-31T21:33:27.390Z,100360.25
2022-07-31T21:35:55.426Z,100368.31
2022-07-31T21:38:23.590Z,100372.28
2022-07-31T21:40:51.828Z,100375.28
2022-07-31T21:43:22.700Z,100374.44
2022-07-31T21:45:57.320Z,100384.38
2022-07-31T21:48:29.676Z,100377.09
2022-07-31T21:50:57.545Z,100389.75
2022-07-31T21:53:25.037Z,100378.78
2022-07-31T21:55:52.420Z,100382.06
2022-07-31T21:58:19.412Z,100388.22
2022-07-31T22:00:46.815Z,100390.09
2022-07-31T22:03:13.863Z,100396.91
2022-07-31T22:05:59.647Z,100398.28
2022-07-31T22:08:26.653Z,100394.47
2022-07-31T22:10:53.893Z,100405.38
2022-07-31T22:13:21.292Z,100400.78
2022-07-31T22:15:52.670Z,100397.53
2022-07-31T22:18:33.406Z,100392.66
2022-07-31T22:21:04.178Z,100397.94
2022-07-31T22:23:31.623Z,100406.66
2022-07-31T22:25:59.021Z,100401.09
2022-07-31T22:28:27.294Z,100409.34
2022-07-31T22:30:55.693Z,100406.31
2022-07-31T22:33:23.601Z,100414.56
2022-07-31T22:35:59.812Z,100410.75
2022-07-31T22:38:30.386Z,100417.25
2022-07-31T22:40:59.631Z,100421.28
2022-07-31T22:44:14.159Z,100415.00
2022-07-31T22:46:15.360Z,100423.56
2022-07-31T22:48:44.122Z,100423.13
2022-07-31T22:51:14.290Z,100423.56
2022-07-31T22:53:43.542Z,100419.72
2022-07-31T22:56:10.656Z,100424.84
2022-07-31T22:58:37.733Z,100427.97
2022-07-31T23:01:04.747Z,100425.69
2022-07-31T23:03:31.726Z,100434.22
2022-07-31T23:06:02.520Z,100438.25
2022-07-31T23:08:50.567Z,100443.16
2022-07-31T23:11:20.819Z,100440.75
2022-07-31T23:13:47.807Z,100448.72
2022-07-31T23:16:14.858Z,100447.44
2022-07-31T23:18:41.827Z,100450.78
2022-07-31T23:21:12.209Z,100453.38
2022-07-31T23:23:39.217Z,100463.78
2022-07-31T23:26:06.341Z,100457.88
2022-07-31T23:28:33.747Z,100459.03
2022-07-31T23:31:00.726Z,100458.03
2022-07-31T23:33:27.735Z,100460.38
2022-07-31T23:35:54.811Z,100457.44
2022-07-31T23:38:21.910Z,100460.63
2022-07-31T23:40:48.853Z,100458.28
2022-07-31T23:43:20.610Z,100461.50
2022-07-31T23:45:47.982Z,100463.06
2022-07-31T23:48:15.487Z,100455.13
2022-07-31T23:50:44.314Z,100453.16
2022-07-31T23:53:11.370Z,100453.53
2022-07-31T23:55:39.219Z,100450.59
2022-07-31T23:58:10.378Z,100445.94
